createdAt,value
2018-05-09T00:02:39.575Z,18.70
2018-05-09T00:06:12.139Z,18.70
2018-05-09T00:09:44.697Z,18.70
2018-05-09T00:13:17.263Z,18.70
2018-05-09T00:16:50.874Z,18.60
2018-05-09T00:20:24.196Z,18.60
2018-05-09T00:23:56.750Z,18.60
2018-05-09T00:27:30.081Z,18.50
2018-05-09T00:31:02.648Z,18.50
2018-05-09T00:34:35.199Z,18.50
2018-05-09T00:38:07.761Z,18.50
2018-05-09T00:41:41.121Z,18.50
2018-05-09T00:45:13.528Z,18.40
2018-05-09T00:48:45.992Z,18.40
2018-05-09T00:52:18.478Z,18.30
2018-05-09T00:55:51.716Z,18.00
2018-05-09T00:59:24.191Z,18.00
2018-05-09T01:02:56.672Z,17.90
2018-05-09T01:06:29.143Z,17.90
2018-05-09T01:10:01.620Z,17.90
2018-05-09T01:13:34.096Z,17.90
2018-05-09T01:17:06.568Z,17.90
2018-05-09T01:20:39.806Z,17.80
2018-05-09T01:24:12.298Z,17.80
2018-05-09T01:27:44.764Z,17.90
2018-05-09T01:31:17.248Z,17.90
2018-05-09T01:34:49.711Z,17.90
2018-05-09T01:38:22.192Z,17.80
2018-05-09T01:41:54.672Z,17.80
2018-05-09T01:45:27.143Z,17.70
2018-05-09T01:49:00.385Z,17.40
2018-05-09T01:52:32.864Z,17.40
2018-05-09T01:56:05.331Z,17.30
2018-05-09T01:59:37.808Z,17.30
2018-05-09T02:03:10.280Z,17.20
2018-05-09T02:06:42.762Z,17.30
2018-05-09T02:10:15.229Z,17.20
2018-05-09T02:13:48.480Z,17.10
2018-05-09T02:17:20.952Z,17.10
2018-05-09T02:20:53.425Z,17.10
2018-05-09T02:24:25.899Z,17.10
2018-05-09T02:27:58.372Z,17.20
2018-05-09T02:31:30.837Z,17.20
2018-05-09T02:35:04.084Z,17.30
2018-05-09T02:38:37.724Z,17.30
2018-05-09T02:42:10.984Z,17.40
2018-05-09T02:45:43.454Z,17.40
2018-05-09T02:49:15.964Z,17.40
2018-05-09T02:52:48.447Z,17.50
2018-05-09T02:56:20.921Z,17.50
2018-05-09T02:59:54.581Z,17.50
2018-05-09T03:03:27.109Z,17.50
2018-05-09T03:07:00.224Z,17.50
2018-05-09T03:10:32.697Z,17.50
2018-05-09T03:14:05.188Z,17.50
2018-05-09T03:17:37.660Z,17.50
2018-05-09T03:21:10.161Z,17.50
2018-05-09T03:24:42.704Z,17.50
2018-05-09T03:28:15.116Z,17.40
2018-05-09T03:31:47.614Z,17.40
2018-05-09T03:35:20.872Z,17.30
2018-05-09T03:38:53.353Z,17.30
2018-05-09T03:42:25.844Z,17.30
2018-05-09T03:45:58.487Z,17.30
2018-05-09T03:49:30.988Z,17.30
2018-05-09T03:53:03.475Z,17.20
2018-05-09T03:56:35.948Z,17.20
2018-05-09T04:00:08.429Z,17.20
2018-05-09T04:03:52.708Z,17.20
2018-05-09T04:07:36.881Z,17.10
2018-05-09T04:11:09.364Z,17.10
2018-05-09T04:14:42.271Z,17.20
2018-05-09T04:18:14.780Z,17.10
2018-05-09T04:21:48.032Z,17.20
2018-05-09T04:25:20.545Z,17.10
2018-05-09T04:28:53.044Z,17.20
2018-05-09T04:32:26.320Z,17.30
2018-05-09T04:35:58.796Z,17.30
2018-05-09T04:39:31.272Z,17.30
2018-05-09T04:43:03.756Z,17.20
2018-05-09T04:46:36.238Z,17.30
2018-05-09T04:50:08.729Z,17.30
2018-05-09T04:53:41.196Z,17.30
2018-05-09T04:57:13.684Z,17.30
2018-05-09T05:00:46.168Z,17.30
2018-05-09T05:04:18.647Z,17.30
2018-05-09T05:07:51.132Z,17.30
2018-05-09T05:11:23.615Z,17.30
2018-05-09T05:14:56.097Z,17.30
2018-05-09T05:18:28.568Z,17.30
2018-05-09T05:22:01.064Z,17.30
2018-05-09T05:25:33.556Z,17.30
2018-05-09T05:29:06.814Z,17.30
2018-05-09T05:32:39.307Z,17.30
2018-05-09T05:36:11.780Z,17.40
2018-05-09T05:39:44.273Z,17.50
2018-05-09T05:43:16.743Z,17.60
2018-05-09T05:46:49.234Z,17.70
2018-05-09T05:50:21.756Z,17.80
2018-05-09T05:53:55.009Z,18.30
2018-05-09T05:57:27.487Z,18.20
2018-05-09T06:00:59.984Z,18.40
2018-05-09T06:04:32.467Z,18.40
2018-05-09T06:08:04.983Z,18.40
2018-05-09T06:11:37.440Z,18.30
2018-05-09T06:15:09.919Z,18.30
2018-05-09T06:18:42.401Z,18.30
2018-05-09T06:22:14.872Z,18.40
2018-05-09T06:25:47.364Z,18.40
2018-05-09T06:29:19.848Z,18.50
2018-05-09T06:32:52.371Z,18.60
2018-05-09T06:36:24.820Z,18.80
2018-05-09T06:39:57.292Z,18.90
2018-05-09T06:43:29.780Z,19.10
2018-05-09T06:47:02.249Z,19.20
2018-05-09T06:50:34.743Z,19.30
2018-05-09T06:54:07.221Z,19.50
2018-05-09T06:57:39.712Z,19.60
2018-05-09T07:01:12.185Z,19.80
2018-05-09T07:04:44.668Z,20.00
2018-05-09T07:08:17.153Z,20.10
2018-05-09T07:11:49.623Z,20.20
2018-05-09T07:15:22.107Z,20.30
2018-05-09T07:18:54.595Z,20.40
2018-05-09T07:22:27.086Z,20.60
2018-05-09T07:25:59.567Z,20.70
2018-05-09T07:29:32.053Z,20.80
2018-05-09T07:33:04.544Z,20.90
2018-05-09T07:36:37.796Z,21.00
2018-05-09T07:40:10.280Z,20.90
2018-05-09T07:43:42.767Z,21.10
2018-05-09T07:47:15.249Z,21.20
2018-05-09T07:50:47.726Z,21.30
2018-05-09T07:54:20.224Z,21.40
2018-05-09T07:57:52.707Z,21.50
2018-05-09T08:01:25.220Z,21.60
2018-05-09T08:04:57.676Z,21.70
2018-05-09T08:08:30.163Z,21.70
2018-05-09T08:12:02.640Z,21.80
2018-05-09T08:15:35.114Z,21.90
2018-05-09T08:19:07.599Z,22.00
2018-05-09T08:22:40.769Z,22.10
2018-05-09T08:26:13.265Z,22.20
2018-05-09T08:29:45.749Z,22.20
2018-05-09T08:33:18.229Z,22.30
2018-05-09T08:36:50.712Z,22.40
2018-05-09T08:40:23.183Z,22.40
2018-05-09T08:43:55.686Z,22.60
2018-05-09T08:47:28.174Z,22.80
2018-05-09T08:51:00.652Z,22.90
2018-05-09T08:54:33.125Z,23.00
2018-05-09T08:58:05.596Z,23.00
2018-05-09T09:01:38.077Z,23.00
2018-05-09T09:05:10.557Z,23.00
2018-05-09T09:08:43.045Z,23.00
2018-05-09T09:12:15.533Z,23.00
2018-05-09T09:15:48.025Z,23.00
2018-05-09T09:19:20.502Z,23.10
2018-05-09T09:22:52.983Z,23.20
2018-05-09T09:26:25.465Z,23.30
2018-05-09T09:29:57.946Z,23.50
2018-05-09T09:33:30.413Z,23.60
2018-05-09T09:37:02.901Z,23.70
2018-05-09T09:40:35.378Z,23.90
2018-05-09T09:44:07.840Z,24.00
2018-05-09T09:47:40.329Z,23.90
2018-05-09T09:51:12.817Z,23.80
2018-05-09T09:54:45.307Z,23.80
2018-05-09T09:58:17.768Z,23.90
2018-05-09T10:01:50.253Z,24.10
2018-05-09T10:05:22.728Z,24.10
2018-05-09T10:08:55.206Z,24.20
2018-05-09T10:12:27.681Z,24.30
2018-05-09T10:16:00.181Z,24.40
2018-05-09T10:19:32.642Z,24.50
2018-05-09T10:23:05.884Z,24.40
2018-05-09T10:26:38.361Z,24.40
2018-05-09T10:30:10.836Z,24.40
2018-05-09T10:33:43.304Z,24.50
2018-05-09T10:37:15.783Z,24.50
2018-05-09T10:40:48.277Z,24.60
2018-05-09T10:44:20.773Z,24.70
2018-05-09T10:47:53.236Z,24.80
2018-05-09T10:51:25.717Z,24.90
2018-05-09T10:54:58.197Z,25.10
2018-05-09T10:58:30.676Z,25.30
2018-05-09T11:02:03.147Z,25.40
2018-05-09T11:05:35.634Z,25.50
2018-05-09T11:09:08.112Z,25.60
2018-05-09T11:12:40.586Z,25.70
2018-05-09T11:16:13.068Z,25.80
2018-05-09T11:19:45.550Z,26.00
2018-05-09T11:23:18.035Z,26.10
2018-05-09T11:26:50.500Z,26.30
2018-05-09T11:30:23.000Z,26.50
2018-05-09T11:33:55.483Z,26.60
2018-05-09T11:37:28.010Z,26.50
2018-05-09T11:41:00.463Z,26.40
2018-05-09T11:44:32.947Z,26.30
2018-05-09T11:48:05.434Z,26.30
2018-05-09T11:51:37.913Z,26.10
2018-05-09T11:55:10.394Z,26.10
2018-05-09T11:58:42.906Z,26.10
2018-05-09T12:02:15.428Z,26.20
2018-05-09T12:05:47.884Z,26.30
2018-05-09T12:09:20.373Z,26.30
2018-05-09T12:12:52.862Z,26.30
2018-05-09T12:16:26.092Z,26.30
2018-05-09T12:19:58.570Z,26.30
2018-05-09T12:23:31.044Z,26.30
2018-05-09T12:27:03.532Z,26.40
2018-05-09T12:30:36.033Z,26.60
2018-05-09T12:34:08.512Z,26.70
2018-05-09T12:37:40.994Z,26.90
2018-05-09T12:41:13.462Z,26.90
2018-05-09T12:44:45.954Z,26.70
2018-05-09T12:48:18.430Z,26.60
2018-05-09T12:51:50.909Z,26.50
2018-05-09T12:55:23.388Z,26.40
2018-05-09T12:58:55.897Z,26.60
2018-05-09T13:02:28.376Z,26.80
2018-05-09T13:06:00.849Z,26.90
2018-05-09T13:09:33.335Z,27.00
2018-05-09T13:13:05.821Z,27.10
2018-05-09T13:16:38.321Z,27.10
2018-05-09T13:20:10.797Z,27.20
2018-05-09T13:23:43.284Z,27.40
2018-05-09T13:27:15.763Z,27.50
2018-05-09T13:30:48.224Z,27.50
2018-05-09T13:34:20.708Z,27.60
2018-05-09T13:37:53.215Z,27.60
2018-05-09T13:41:25.924Z,27.50
2018-05-09T13:44:58.396Z,27.30
2018-05-09T13:48:30.872Z,27.10
2018-05-09T13:52:03.373Z,27.10
2018-05-09T13:55:35.851Z,27.10
2018-05-09T13:59:08.333Z,27.20
2018-05-09T14:02:40.820Z,27.30
2018-05-09T14:06:13.296Z,27.50
2018-05-09T14:09:45.837Z,27.70
2018-05-09T14:13:19.032Z,28.20
2018-05-09T14:16:51.508Z,28.20
2018-05-09T14:20:23.982Z,28.20
2018-05-09T14:23:56.473Z,28.20
2018-05-09T14:27:28.962Z,28.00
2018-05-09T14:31:01.445Z,27.80
2018-05-09T14:34:33.921Z,27.60
2018-05-09T14:38:06.401Z,27.60
2018-05-09T14:41:38.899Z,27.60
2018-05-09T14:45:11.386Z,27.60
2018-05-09T14:48:43.856Z,27.60
2018-05-09T14:52:16.342Z,27.60
2018-05-09T14:55:48.829Z,27.50
2018-05-09T14:59:21.317Z,27.30
2018-05-09T15:02:53.784Z,27.00
2018-05-09T15:06:26.265Z,26.80
2018-05-09T15:09:58.812Z,26.60
2018-05-09T15:13:41.570Z,26.50
2018-05-09T15:17:14.065Z,26.60
2018-05-09T15:20:46.544Z,27.10
2018-05-09T15:24:19.020Z,27.30
2018-05-09T15:27:51.504Z,27.20
2018-05-09T15:31:23.984Z,27.40
2018-05-09T15:34:56.463Z,27.90
2018-05-09T15:38:28.942Z,28.30
2018-05-09T15:42:01.429Z,28.50
2018-05-09T15:45:33.911Z,28.60
2018-05-09T15:49:06.402Z,28.90
2018-05-09T15:52:38.888Z,29.20
2018-05-09T15:56:11.377Z,29.20
2018-05-09T15:59:43.882Z,29.30
2018-05-09T16:03:16.350Z,29.40
2018-05-09T16:06:48.844Z,29.60
2018-05-09T16:10:22.122Z,29.60
2018-05-09T16:13:54.593Z,29.60
2018-05-09T16:17:27.073Z,29.10
2018-05-09T16:20:59.546Z,28.60
2018-05-09T16:24:37.984Z,28.10
2018-05-09T16:28:11.140Z,27.80
2018-05-09T16:31:43.620Z,27.50
2018-05-09T16:35:16.107Z,27.30
2018-05-09T16:38:49.430Z,27.00
2018-05-09T16:42:21.912Z,26.80
2018-05-09T16:45:54.392Z,26.70
2018-05-09T16:49:26.931Z,26.60
2018-05-09T16:52:59.408Z,26.60
2018-05-09T16:56:31.884Z,26.50
2018-05-09T17:00:05.129Z,26.50
2018-05-09T17:03:37.615Z,26.50
2018-05-09T17:07:10.108Z,26.40
2018-05-09T17:10:42.608Z,26.40
2018-05-09T17:14:15.094Z,26.30
2018-05-09T17:17:47.580Z,26.10
2018-05-09T17:21:34.203Z,25.90
2018-05-09T17:25:08.371Z,25.70
2018-05-09T17:28:41.725Z,25.70
2018-05-09T17:32:14.215Z,25.70
2018-05-09T17:35:47.388Z,25.60
2018-05-09T17:39:19.873Z,25.50
2018-05-09T17:42:52.356Z,25.40
2018-05-09T17:46:24.821Z,25.40
2018-05-09T17:49:57.305Z,25.10
2018-05-09T17:53:29.802Z,24.90
2018-05-09T17:57:02.288Z,24.60
2018-05-09T18:00:34.776Z,24.50
2018-05-09T18:04:11.270Z,24.10
2018-05-09T18:07:44.520Z,23.90
2018-05-09T18:11:16.993Z,23.90
2018-05-09T18:14:49.520Z,23.70
2018-05-09T18:18:21.986Z,23.50
2018-05-09T18:21:54.473Z,23.30
2018-05-09T18:25:26.953Z,23.10
2018-05-09T18:28:59.430Z,23.00
2018-05-09T18:32:31.917Z,22.80
2018-05-09T18:36:04.384Z,22.70
2018-05-09T18:39:36.868Z,22.60
2018-05-09T18:43:09.352Z,22.50
2018-05-09T18:46:41.836Z,22.40
2018-05-09T18:50:14.309Z,22.40
2018-05-09T18:53:46.788Z,22.20
2018-05-09T18:57:19.280Z,22.20
2018-05-09T19:00:51.765Z,22.10
2018-05-09T19:04:24.253Z,22.00
2018-05-09T19:07:56.765Z,22.00
2018-05-09T19:11:30.018Z,21.90
2018-05-09T19:15:02.499Z,21.90
2018-05-09T19:18:34.981Z,21.90
2018-05-09T19:22:07.722Z,21.80
2018-05-09T19:25:40.229Z,21.70
2018-05-09T19:29:12.702Z,21.70
2018-05-09T19:32:45.184Z,21.60
2018-05-09T19:36:17.693Z,21.60
2018-05-09T19:39:50.184Z,21.60
2018-05-09T19:43:22.710Z,21.50
2018-05-09T19:46:56.013Z,21.50
2018-05-09T19:50:28.511Z,21.50
2018-05-09T19:54:00.999Z,21.50
2018-05-09T19:57:33.476Z,21.50
2018-05-09T20:01:05.976Z,21.40
2018-05-09T20:04:38.492Z,21.40
2018-05-09T20:08:10.986Z,21.30
2018-05-09T20:11:44.236Z,21.20
2018-05-09T20:15:16.725Z,21.20
2018-05-09T20:18:49.188Z,21.20
2018-05-09T20:22:21.667Z,21.20
2018-05-09T20:25:54.148Z,21.20
2018-05-09T20:29:26.624Z,21.10
2018-05-09T20:32:59.100Z,21.00
2018-05-09T20:36:31.581Z,20.90
2018-05-09T20:40:04.068Z,20.90
2018-05-09T20:43:36.550Z,20.90
2018-05-09T20:47:09.024Z,20.90
2018-05-09T20:50:42.282Z,20.80
2018-05-09T20:54:14.792Z,20.80
2018-05-09T20:57:47.261Z,20.70
2018-05-09T21:01:31.449Z,20.70
2018-05-09T21:05:03.945Z,20.60
2018-05-09T21:08:36.429Z,20.40
2018-05-09T21:12:09.693Z,20.30
2018-05-09T21:15:42.172Z,20.30
2018-05-09T21:19:14.653Z,20.20
2018-05-09T21:22:47.125Z,20.10
2018-05-09T21:26:19.601Z,20.10
2018-05-09T21:29:52.093Z,20.10
2018-05-09T21:33:24.561Z,20.00
2018-05-09T21:36:57.059Z,20.10
2018-05-09T21:40:29.540Z,20.00
2018-05-09T21:44:02.017Z,20.00
2018-05-09T21:47:34.488Z,19.90
2018-05-09T21:51:06.981Z,19.80
2018-05-09T21:54:39.452Z,19.70
2018-05-09T21:58:11.917Z,19.70
2018-05-09T22:01:44.396Z,19.60
2018-05-09T22:05:16.872Z,19.60
2018-05-09T22:08:49.352Z,19.50
2018-05-09T22:12:21.825Z,19.40
2018-05-09T22:15:54.300Z,19.30
2018-05-09T22:19:26.785Z,19.30
2018-05-09T22:22:59.256Z,19.20
2018-05-09T22:26:31.743Z,19.00
2018-05-09T22:30:04.228Z,18.90
2018-05-09T22:33:36.724Z,18.80
2018-05-09T22:37:09.193Z,18.60
2018-05-09T22:40:41.809Z,18.50
2018-05-09T22:44:14.297Z,18.50
2018-05-09T22:47:46.769Z,18.50
2018-05-09T22:51:19.240Z,18.40
2018-05-09T22:54:51.736Z,18.30
2018-05-09T22:58:24.223Z,18.30
2018-05-09T23:01:56.693Z,18.20
2018-05-09T23:05:29.190Z,18.20
2018-05-09T23:09:01.676Z,18.20
2018-05-09T23:12:34.174Z,18.20
2018-05-09T23:16:07.405Z,18.10
2018-05-09T23:19:39.903Z,18.10
2018-05-09T23:23:12.382Z,18.10
2018-05-09T23:26:44.860Z,18.00
2018-05-09T23:30:17.348Z,17.90
2018-05-09T23:33:49.823Z,17.90
2018-05-09T23:37:22.304Z,17.90
2018-05-09T23:40:54.789Z,17.90
2018-05-09T23:44:27.267Z,17.80
2018-05-09T23:47:59.761Z,17.80
2018-05-09T23:51:32.232Z,17.70
2018-05-09T23:55:04.724Z,17.70
2018-05-09T23:58:37.204Z,17.70
